Time;durP1;ratioP1;P1;durP2;ratioP2;P2;SDS_P1;SDS_P2;PMS_P1;PMS_P2;Temp;Humidity;BMP_temperature;BMP_pressure;BME280_temperature;BME280_humidity;BME280_pressure;Samples;Min_cycle;Max_cycle;Signal;HPM_P1;HPM_P2
2022/01/28 00:00:13;;;;;;;1.00;1.00;;;7.20;99.90;7.00;102944.00;;;;5034628;28;20222;-66
2022/01/28 00:04:53;;;;;;;1.00;1.00;;;7.20;99.90;6.20;102953.00;;;;5015647;28;20188;-66
2022/01/28 00:07:19;;;;;;;0.80;0.80;;;7.00;99.90;6.70;102964.00;;;;5029567;28;20237;-66
2022/01/28 00:09:45;;;;;;;1.00;1.00;;;7.00;99.90;6.80;102974.00;;;;5013583;28;20190;-67
2022/01/28 00:12:12;;;;;;;3.23;1.27;;;7.00;99.90;6.80;102951.00;;;;5014064;28;20720;-67
2022/01/28 00:38:59;;;;;;;0.93;0.93;;;6.60;99.90;6.00;103006.00;;;;5046852;28;20189;-67
2022/01/28 00:41:25;;;;;;;0.70;0.70;;;6.50;99.90;6.20;103010.00;;;;5033677;28;20194;-67
2022/01/28 00:43:51;;;;;;;6.70;3.40;;;6.50;99.90;5.90;103013.00;;;;5049932;28;20547;-67
2022/01/28 00:46:16;;;;;;;0.73;0.73;;;6.50;99.90;6.00;103021.00;;;;5050567;28;20245;-67
2022/01/28 00:48:42;;;;;;;0.60;0.60;;;6.40;99.90;6.20;103024.00;;;;5049380;28;20161;-66
2022/01/28 00:51:08;;;;;;;0.70;0.70;;;6.50;99.90;6.30;103030.00;;;;5031474;28;20643;-66
2022/01/28 00:53:34;;;;;;;0.70;0.70;;;6.60;99.90;6.40;103035.00;;;;5013921;28;20197;-66
2022/01/28 00:55:59;;;;;;;0.77;0.77;;;6.70;99.90;6.30;103025.00;;;;5011109;28;20588;-64
2022/01/28 00:58:25;;;;;;;2.97;1.57;;;6.60;99.90;6.50;103010.00;;;;5013943;28;20190;-65
2022/01/28 01:00:51;;;;;;;0.67;0.67;;;6.70;99.90;6.00;103013.00;;;;5013273;28;20226;-65
2022/01/28 01:03:17;;;;;;;0.80;0.80;;;6.60;99.90;5.40;103016.00;;;;5017004;28;20247;-65
2022/01/28 01:05:43;;;;;;;0.87;0.87;;;6.30;99.90;6.10;102982.00;;;;5012368;28;20183;-65
2022/01/28 01:08:12;;;;;;;0.60;0.60;;;6.40;99.90;6.00;103019.00;;;;5028786;28;20197;-65
2022/01/28 01:10:41;;;;;;;1.07;1.07;;;6.40;99.90;6.10;103015.00;;;;5015207;28;20257;-64
2022/01/28 01:13:07;;;;;;;1.30;1.30;;;6.50;99.90;5.90;102981.00;;;;5029118;28;20206;-65
2022/01/28 01:15:41;;;;;;;2.20;1.73;;;6.40;99.90;5.50;103017.00;;;;5029946;28;20218;-65
2022/01/28 01:18:20;;;;;;;1.17;1.17;;;6.20;99.90;5.40;103030.00;;;;5028540;28;20182;-65
2022/01/28 01:21:02;;;;;;;1.40;1.40;;;6.10;99.90;5.50;103048.00;;;;5027887;28;20205;-65
2022/01/28 01:23:34;;;;;;;2.50;1.10;;;6.10;99.90;5.80;103047.00;;;;5026323;28;20182;-65
2022/01/28 01:28:36;;;;;;;0.83;0.83;;;6.30;99.90;5.70;103001.00;;;;5028102;28;20280;-66
2022/01/28 01:31:05;;;;;;;0.90;0.90;;;6.30;99.90;5.40;103042.00;;;;5015256;28;20171;-64
2022/01/28 01:33:39;;;;;;;1.40;1.30;;;6.10;99.90;5.90;103018.00;;;;5047862;28;20198;-65
2022/01/28 01:36:05;;;;;;;1.03;1.03;;;6.20;99.90;5.90;103036.00;;;;5049056;28;20216;-65
2022/01/28 01:38:35;;;;;;;1.00;0.80;;;6.30;99.90;5.80;103044.00;;;;5027803;28;20382;-65
2022/01/28 01:41:03;;;;;;;0.60;0.60;;;6.20;99.90;6.20;103037.00;;;;5028854;28;20177;-66
2022/01/28 01:43:45;;;;;;;0.70;0.70;;;6.40;99.90;6.10;103035.00;;;;5029098;28;20273;-65
2022/01/28 01:46:25;;;;;;;0.80;0.80;;;6.40;99.90;6.00;103036.00;;;;5025904;28;20632;-65
2022/01/28 01:54:19;;;;;;;0.80;0.80;;;6.20;99.90;5.80;103059.00;;;;5031808;28;20232;-65
2022/01/28 01:56:45;;;;;;;1.87;1.77;;;6.20;99.90;5.70;103073.00;;;;5049003;28;20177;-65
2022/01/28 01:59:14;;;;;;;0.60;0.60;;;6.20;99.90;5.70;103014.00;;;;5048157;28;20251;-65
2022/01/28 02:01:40;;;;;;;0.93;0.93;;;6.20;99.90;5.40;103073.00;;;;5032545;28;20206;-65
2022/01/28 02:04:06;;;;;;;1.40;1.20;;;6.10;99.90;5.90;103062.00;;;;5048233;28;20524;-65
2022/01/28 02:06:33;;;;;;;1.70;1.37;;;6.20;99.90;5.80;103047.00;;;;5047765;28;20587;-65
2022/01/28 02:09:00;;;;;;;0.50;0.50;;;6.20;99.90;5.60;103077.00;;;;5048143;28;20503;-65
2022/01/28 02:11:25;;;;;;;2.30;1.73;;;6.10;99.90;5.80;103025.00;;;;5047383;28;20212;-65
2022/01/28 02:13:52;;;;;;;0.93;0.93;;;6.10;99.90;5.50;103068.00;;;;5047565;28;20189;-65
2022/01/28 02:16:19;;;;;;;0.83;0.83;;;6.20;99.90;5.50;103077.00;;;;5032234;28;20185;-65
2022/01/28 02:18:45;;;;;;;0.90;0.90;;;6.10;99.90;5.60;103074.00;;;;5047442;28;20180;-65
2022/01/28 02:21:16;;;;;;;0.70;0.70;;;6.20;99.90;5.60;103061.00;;;;5031138;28;20180;-65
2022/01/28 02:23:46;;;;;;;3.63;1.50;;;6.10;99.90;5.90;103077.00;;;;5048122;28;20177;-66
2022/01/28 02:26:15;;;;;;;0.93;0.70;;;6.20;99.90;5.00;103066.00;;;;5048019;28;20178;-65
2022/01/28 02:28:43;;;;;;;1.73;1.63;;;6.00;99.90;5.20;103075.00;;;;5047334;28;20211;-65
2022/01/28 02:31:09;;;;;;;1.00;1.00;;;5.90;99.90;5.00;103076.00;;;;5046350;28;20552;-65
2022/01/28 02:33:35;;;;;;;0.40;0.40;;;5.80;99.90;4.90;103083.00;;;;5028301;28;20188;-66
2022/01/28 02:36:06;;;;;;;1.43;1.43;;;5.60;99.90;5.20;103074.00;;;;5012702;28;20181;-66
2022/01/28 02:38:36;;;;;;;1.23;1.13;;;5.70;99.90;5.00;103077.00;;;;5028107;28;20510;-66
2022/01/28 02:41:04;;;;;;;2.10;1.60;;;5.60;99.90;4.90;103072.00;;;;5010580;28;20640;-66
2022/01/28 02:43:56;;;;;;;0.83;0.83;;;5.60;99.90;5.10;103081.00;;;;5012454;28;20181;-65
2022/01/28 02:46:25;;;;;;;0.80;0.80;;;5.60;99.90;5.00;103049.00;;;;5023956;28;20179;-66
2022/01/28 02:48:55;;;;;;;1.80;1.70;;;5.50;99.90;5.10;103060.00;;;;5027958;28;20635;-67
2022/01/28 02:51:23;;;;;;;8.93;1.93;;;5.50;99.90;4.70;103076.00;;;;5016700;28;20204;-66
2022/01/28 02:56:18;;;;;;;1.57;1.47;;;5.30;99.90;4.70;103078.00;;;;5031829;28;20190;-66
2022/01/28 02:58:45;;;;;;;0.40;0.40;;;5.30;99.90;4.90;103076.00;;;;5047510;28;20177;-66
2022/01/28 03:01:13;;;;;;;4.23;3.93;;;5.40;99.90;5.30;103081.00;;;;5032279;28;20191;-67
2022/01/28 03:03:41;;;;;;;0.40;0.40;;;5.60;99.90;4.90;103078.00;;;;5046741;28;20188;-67
2022/01/28 03:06:07;;;;;;;1.00;1.00;;;5.60;99.90;5.00;103073.00;;;;5048342;28;20176;-66
2022/01/28 03:08:33;;;;;;;1.80;1.70;;;5.50;99.90;5.20;103090.00;;;;5031712;28;20525;-66
2022/01/28 03:16:32;;;;;;;1.63;1.00;;;5.50;99.90;5.00;103086.00;;;;5031835;28;20174;-66
2022/01/28 03:19:19;;;;;;;0.50;0.50;;;5.50;99.90;4.80;103072.00;;;;5049999;28;20175;-66
2022/01/28 03:21:54;;;;;;;2.30;2.10;;;5.50;99.90;5.00;103097.00;;;;5033837;28;20178;-66
2022/01/28 03:24:29;;;;;;;0.60;0.60;;;5.50;99.90;5.10;103102.00;;;;5036466;28;20174;-65
2022/01/28 03:27:01;;;;;;;1.17;1.17;;;5.50;99.90;5.00;103062.00;;;;5032678;28;20190;-66
2022/01/28 03:29:27;;;;;;;9.43;2.37;;;5.50;99.90;5.10;103108.00;;;;5049959;28;20184;-67
2022/01/28 03:31:53;;;;;;;0.60;0.60;;;5.50;99.90;4.70;103113.00;;;;5050526;28;20582;-66
2022/01/28 03:34:19;;;;;;;1.97;1.87;;;5.40;99.90;4.70;103118.00;;;;5035612;28;20592;-66
2022/01/28 03:36:45;;;;;;;0.60;0.60;;;5.30;99.90;4.50;103095.00;;;;5031440;28;20240;-66
2022/01/28 03:39:11;;;;;;;5.57;1.07;;;5.30;99.90;4.80;103120.00;;;;5015685;28;20238;-65
2022/01/28 03:41:38;;;;;;;0.47;0.47;;;5.20;99.90;4.70;103107.00;;;;5032506;28;20553;-66
2022/01/28 03:44:05;;;;;;;2.73;0.80;;;5.20;99.90;4.40;103106.00;;;;5024703;28;20193;-66
2022/01/28 03:46:31;;;;;;;3.93;2.30;;;5.10;99.90;4.70;103116.00;;;;5029697;28;20171;-66
2022/01/28 03:48:58;;;;;;;8.90;4.30;;;5.20;99.90;4.70;103119.00;;;;5031679;28;20492;-66
2022/01/28 03:51:27;;;;;;;2.23;2.13;;;5.20;99.90;4.50;103113.00;;;;5032620;28;20198;-66
2022/01/28 03:53:53;;;;;;;2.63;1.80;;;5.20;99.90;4.30;103102.00;;;;5051137;28;20202;-66
2022/01/28 03:56:19;;;;;;;2.10;2.00;;;5.00;99.90;4.60;103126.00;;;;5050468;28;20697;-66
2022/01/28 03:58:45;;;;;;;0.50;0.50;;;5.00;99.90;4.60;103114.00;;;;5035973;28;20179;-65
2022/01/28 04:01:18;;;;;;;1.07;1.07;;;4.90;99.90;4.50;103066.00;;;;5035603;28;20264;-67
2022/01/28 04:04:03;;;;;;;14.30;4.37;;;4.80;99.90;4.70;103126.00;;;;5035007;28;20183;-66
2022/01/28 04:11:27;;;;;;;2.73;1.67;;;5.10;99.90;5.60;103116.00;;;;5046936;28;20607;-66
2022/01/28 04:12:12;;;;;;;2.20;2.10;;;5.30;99.90;5.80;103113.00;;;;5045156;28;20214;-66
2022/01/28 04:17:38;;;;;;;0.97;0.97;;;5.40;99.90;5.50;103138.00;;;;5012654;28;20223;-66
2022/01/28 04:20:10;;;;;;;7.77;2.73;;;5.40;99.90;5.10;103128.00;;;;5014468;28;20172;-66
2022/01/28 04:22:35;;;;;;;0.50;0.50;;;5.30;99.90;4.90;103127.00;;;;5024681;28;20192;-66
2022/01/28 04:25:07;;;;;;;1.37;1.27;;;5.10;99.90;5.10;103091.00;;;;5033202;28;20179;-66
2022/01/28 04:27:38;;;;;;;0.30;0.30;;;5.10;99.90;4.80;103135.00;;;;5033653;28;20218;-66
2022/01/28 04:30:10;;;;;;;0.30;0.30;;;5.00;99.90;4.50;103133.00;;;;5050551;28;20190;-66
2022/01/28 04:32:41;;;;;;;2.37;1.73;;;4.90;99.90;4.80;103111.00;;;;5033585;28;20215;-66
2022/01/28 04:35:13;;;;;;;7.03;5.57;;;4.90;99.90;4.40;103157.00;;;;5050417;28;20180;-66
2022/01/28 04:38:21;;;;;;;4.10;2.40;;;4.70;99.90;4.60;103158.00;;;;5033152;28;20185;-66
2022/01/28 04:40:43;;;;;;;4.10;1.93;;;4.70;99.90;4.80;103133.00;;;;5045286;28;20309;-66
2022/01/28 04:43:22;;;;;;;3.80;3.57;;;4.90;99.90;4.80;103147.00;;;;5032932;28;20190;-66
2022/01/28 04:46:14;;;;;;;4.90;2.33;;;4.90;99.90;4.60;103176.00;;;;5050204;28;20577;-65
2022/01/28 04:48:53;;;;;;;0.90;0.90;;;4.80;99.90;4.50;103179.00;;;;5046454;28;20180;-65
2022/01/28 04:57:19;;;;;;;1.47;1.37;;;4.60;99.90;4.30;103180.00;;;;5033631;28;20282;-66
2022/01/28 05:00:06;;;;;;;0.40;0.40;;;4.50;99.90;4.40;103126.00;;;;5048156;28;20657;-65
2022/01/28 05:03:01;;;;;;;0.80;0.80;;;4.60;99.90;4.40;103177.00;;;;5046551;28;20187;-66
2022/01/28 05:06:02;;;;;;;0.40;0.40;;;4.50;99.90;4.40;103169.00;;;;5046361;28;20642;-66
2022/01/28 05:11:36;;;;;;;0.60;0.60;;;4.90;99.90;4.00;103179.00;;;;5032279;28;20183;-66
2022/01/28 05:25:41;;;;;;;16.43;8.03;;;4.40;99.90;4.50;103189.00;;;;5053646;28;20211;-66
2022/01/28 05:27:56;;;;;;;0.40;0.40;;;4.50;99.90;4.40;103187.00;;;;5051988;28;20186;-66
2022/01/28 05:30:27;;;;;;;0.60;0.60;;;4.40;99.90;4.50;103189.00;;;;5068264;28;20269;-67
2022/01/28 05:32:59;;;;;;;0.50;0.50;;;4.40;99.90;5.20;103192.00;;;;5053916;28;20213;-66
2022/01/28 05:35:31;;;;;;;0.93;0.93;;;4.60;99.90;4.90;103183.00;;;;5039587;28;20216;-66
2022/01/28 05:38:02;;;;;;;0.40;0.40;;;4.70;99.90;4.30;103133.00;;;;5032445;28;20193;-66
2022/01/28 05:40:33;;;;;;;0.30;0.30;;;4.40;99.90;4.00;103188.00;;;;5031227;28;20217;-66
2022/01/28 05:43:04;;;;;;;0.60;0.60;;;4.30;99.90;4.00;103157.00;;;;5033975;28;20272;-66
2022/01/28 05:45:35;;;;;;;0.73;0.73;;;4.30;99.90;4.30;103202.00;;;;5033644;28;20190;-66
2022/01/28 05:48:06;;;;;;;1.43;1.43;;;4.30;99.90;4.40;103200.00;;;;5033357;28;20610;-66
2022/01/28 05:50:34;;;;;;;1.83;1.77;;;4.40;99.90;4.40;103199.00;;;;5032178;28;20179;-66
2022/01/28 05:53:06;;;;;;;2.87;2.67;;;4.40;99.90;3.70;103206.00;;;;5015783;28;20207;-66
2022/01/28 05:55:38;;;;;;;0.50;0.50;;;4.20;99.90;3.60;103202.00;;;;5048550;28;20194;-66
2022/01/28 05:58:07;;;;;;;1.07;1.03;;;4.10;99.90;3.70;103205.00;;;;5048952;28;20269;-65
2022/01/28 06:00:38;;;;;;;2.43;1.67;;;4.00;99.90;3.60;103209.00;;;;5043398;28;20686;-65
2022/01/28 06:03:16;;;;;;;4.13;1.83;;;4.00;99.90;3.70;103215.00;;;;5027882;28;20636;-65
2022/01/28 06:05:48;;;;;;;1.00;0.90;;;4.00;99.90;3.60;103160.00;;;;5013590;28;20175;-66
2022/01/28 06:08:19;;;;;;;0.60;0.60;;;4.00;99.90;3.50;103205.00;;;;5020832;28;20697;-65
2022/01/28 06:10:50;;;;;;;2.37;0.70;;;4.00;99.90;3.40;103195.00;;;;5031093;28;20171;-65
2022/01/28 06:13:21;;;;;;;0.87;0.87;;;4.00;99.90;3.60;103210.00;;;;5032424;28;20748;-66
2022/01/28 06:15:55;;;;;;;4.50;2.73;;;4.00;99.90;3.80;103216.00;;;;5048479;28;20171;-65
2022/01/28 06:18:26;;;;;;;0.30;0.30;;;4.10;99.90;3.70;103218.00;;;;5032052;28;20595;-66
2022/01/28 06:20:58;;;;;;;1.23;1.23;;;4.00;99.90;3.70;103228.00;;;;5048332;28;20221;-65
2022/01/28 06:23:30;;;;;;;8.70;2.77;;;4.10;99.90;3.80;103235.00;;;;5044933;28;20654;-66
2022/01/28 06:25:55;;;;;;;2.63;2.43;;;4.10;99.90;3.80;103226.00;;;;5028405;28;20184;-66
2022/01/28 06:28:27;;;;;;;2.07;1.90;;;4.10;99.90;3.70;103238.00;;;;5034803;28;20642;-66
2022/01/28 06:30:58;;;;;;;3.30;1.13;;;4.10;99.90;3.80;103250.00;;;;5027274;28;20333;-66
2022/01/28 06:33:25;;;;;;;0.70;0.70;;;4.10;99.90;3.40;103260.00;;;;5028474;28;20278;-65
2022/01/28 06:35:51;;;;;;;1.70;1.60;;;4.00;99.90;3.20;103271.00;;;;5028440;28;20231;-65
2022/01/28 06:38:17;;;;;;;1.03;0.60;;;4.00;99.90;3.20;103266.00;;;;5034972;28;20233;-65
2022/01/28 06:40:51;;;;;;;1.03;1.03;;;4.00;99.90;3.40;103265.00;;;;5030570;28;20183;-66
2022/01/28 06:43:22;;;;;;;1.77;1.67;;;4.10;99.90;3.80;103264.00;;;;5046882;28;20658;-66
2022/01/28 06:45:53;;;;;;;0.30;0.30;;;4.20;99.90;3.30;103267.00;;;;5048030;28;20181;-66
2022/01/28 06:48:25;;;;;;;0.40;0.40;;;4.10;99.90;3.30;103274.00;;;;5031675;28;20221;-65
2022/01/28 06:51:59;;;;;;;1.17;1.00;;;4.10;99.90;3.20;103273.00;;;;5032107;28;20182;-66
2022/01/28 06:54:30;;;;;;;0.70;0.70;;;4.00;99.90;3.30;103289.00;;;;5030197;28;20202;-65
2022/01/28 06:57:01;;;;;;;1.33;1.27;;;4.00;99.90;3.30;103280.00;;;;5015299;28;20179;-65
2022/01/28 06:59:35;;;;;;;1.90;0.70;;;4.00;99.90;3.20;103289.00;;;;5015887;28;20183;-65
2022/01/28 07:02:07;;;;;;;0.90;0.50;;;4.00;99.90;3.10;103300.00;;;;5015563;28;20187;-65
2022/01/28 07:04:38;;;;;;;1.97;1.87;;;4.00;99.90;3.20;103311.00;;;;5015863;28;20202;-65
2022/01/28 07:07:12;;;;;;;2.77;2.57;;;4.00;99.90;3.00;103297.00;;;;5031829;28;20270;-65
2022/01/28 07:09:44;;;;;;;6.00;2.53;;;3.90;99.90;3.20;103312.00;;;;5017613;28;20186;-65
2022/01/28 07:12:16;;;;;;;1.70;1.60;;;4.00;99.90;3.10;103322.00;;;;5036233;28;20202;-65
2022/01/28 07:14:48;;;;;;;7.67;4.53;;;3.90;99.90;3.00;103330.00;;;;5050728;28;20618;-65
2022/01/28 07:17:19;;;;;;;1.70;1.60;;;3.90;99.90;3.10;103326.00;;;;5050629;28;20229;-65
2022/01/28 07:19:51;;;;;;;1.93;1.83;;;3.90;99.90;3.20;103334.00;;;;5036408;28;20615;-65
2022/01/28 07:22:22;;;;;;;2.97;2.50;;;4.00;99.90;3.10;103336.00;;;;5035117;28;20183;-66
2022/01/28 07:24:53;;;;;;;2.73;1.80;;;4.00;99.90;3.10;103340.00;;;;5033983;28;20273;-66
2022/01/28 07:27:24;;;;;;;6.93;2.87;;;3.90;99.90;3.10;103332.00;;;;5051052;28;20267;-65
2022/01/28 07:29:55;;;;;;;3.93;2.60;;;4.00;99.90;3.20;103327.00;;;;5030710;28;20641;-66
2022/01/28 07:32:26;;;;;;;0.63;0.63;;;4.00;99.90;3.00;103339.00;;;;5033695;28;20693;-66
2022/01/28 07:34:57;;;;;;;1.80;1.33;;;4.00;99.90;3.30;103348.00;;;;5051478;28;20179;-65
2022/01/28 07:37:23;;;;;;;2.63;2.53;;;4.00;99.90;3.40;103344.00;;;;5034781;28;20241;-66
2022/01/28 07:39:55;;;;;;;1.20;1.20;;;4.10;99.90;3.00;103347.00;;;;5048086;28;20647;-66
2022/01/28 07:42:25;;;;;;;0.97;0.80;;;4.00;99.90;3.10;103312.00;;;;5014838;28;20548;-66
2022/01/28 07:44:51;;;;;;;2.37;2.27;;;3.90;99.90;3.40;103354.00;;;;5030390;28;20182;-66
2022/01/28 07:47:18;;;;;;;9.07;1.73;;;4.10;99.90;3.10;103355.00;;;;5016257;28;20180;-65
2022/01/28 07:49:44;;;;;;;1.80;1.70;;;4.00;99.90;3.20;103364.00;;;;5015985;28;20222;-66
2022/01/28 07:52:10;;;;;;;1.23;1.10;;;4.00;99.90;3.10;103373.00;;;;5015772;28;20200;-66
2022/01/28 07:54:48;;;;;;;4.53;1.37;;;4.00;99.90;3.10;103340.00;;;;5031455;28;20194;-66
2022/01/28 07:57:19;;;;;;;2.53;2.23;;;4.10;99.90;3.40;103332.00;;;;5034740;28;20175;-66
2022/01/28 07:59:45;;;;;;;2.30;2.10;;;4.20;99.90;3.40;103356.00;;;;5050458;28;20187;-66
2022/01/28 08:02:16;;;;;;;2.07;1.53;;;4.10;99.90;3.40;103362.00;;;;5048493;28;20252;-65
2022/01/28 08:04:42;;;;;;;3.93;3.70;;;4.10;99.90;3.60;103338.00;;;;5050221;28;20179;-66
2022/01/28 08:07:14;;;;;;;5.40;2.33;;;4.20;99.90;3.40;103367.00;;;;5032984;28;20650;-66
2022/01/28 08:09:45;;;;;;;1.50;1.40;;;4.20;99.90;3.50;103369.00;;;;5051236;28;20671;-65
2022/01/28 08:12:17;;;;;;;0.73;0.73;;;4.20;99.90;3.40;103374.00;;;;5033513;28;20207;-66
2022/01/28 08:14:43;;;;;;;8.53;2.70;;;4.20;99.90;3.50;103369.00;;;;5050948;28;20171;-66
2022/01/28 08:17:14;;;;;;;1.63;1.53;;;4.30;99.90;3.40;103375.00;;;;5049724;28;20187;-66
2022/01/28 08:19:40;;;;;;;3.13;1.87;;;4.30;99.90;3.50;103345.00;;;;5034291;28;20182;-66
2022/01/28 08:22:11;;;;;;;2.20;2.00;;;4.30;99.90;3.50;103375.00;;;;5034390;28;20682;-66
2022/01/28 08:24:42;;;;;;;3.20;2.90;;;4.40;99.90;3.50;103380.00;;;;5032847;28;20192;-66
2022/01/28 08:27:13;;;;;;;0.50;0.50;;;4.30;99.90;3.60;103382.00;;;;5048294;28;20265;-65
2022/01/28 08:29:47;;;;;;;2.90;1.63;;;4.40;99.90;3.60;103384.00;;;;5034501;28;20203;-66
2022/01/28 08:32:13;;;;;;;2.20;2.03;;;4.40;99.90;3.70;103402.00;;;;5032296;28;20235;-66
2022/01/28 08:34:44;;;;;;;4.27;3.20;;;4.40;99.90;3.70;103337.00;;;;5050550;28;20581;-66
2022/01/28 08:37:15;;;;;;;1.53;1.50;;;4.50;99.90;3.70;103398.00;;;;5033304;28;20194;-65
2022/01/28 08:39:46;;;;;;;0.43;0.43;;;4.60;99.90;3.80;103351.00;;;;5035111;28;20169;-65
2022/01/28 08:42:17;;;;;;;3.37;3.17;;;4.50;99.90;4.20;103399.00;;;;5033287;28;20170;-66
2022/01/28 08:44:49;;;;;;;1.70;1.07;;;4.80;99.90;4.00;103367.00;;;;5034393;28;20198;-63
2022/01/28 08:47:20;;;;;;;0.67;0.67;;;4.80;99.90;4.10;103341.00;;;;5030790;28;20258;-72
2022/01/28 08:49:51;;;;;;;1.93;1.87;;;4.80;99.90;4.20;103393.00;;;;5020700;28;20752;-69
2022/01/28 08:52:22;;;;;;;1.90;1.53;;;4.80;99.90;4.50;103396.00;;;;5034226;28;20192;-70
2022/01/28 08:54:53;;;;;;;0.63;0.63;;;5.00;99.90;4.50;103398.00;;;;5031836;28;20189;-69
2022/01/28 08:57:26;;;;;;;1.50;1.40;;;5.10;99.90;4.30;103348.00;;;;5032129;28;20185;-69
2022/01/28 08:59:58;;;;;;;0.83;0.83;;;5.00;99.90;4.80;103389.00;;;;5032173;28;20185;-64
2022/01/28 09:02:27;;;;;;;0.30;0.30;;;5.20;99.90;4.70;103399.00;;;;5031559;28;20189;-64
2022/01/28 09:04:53;;;;;;;0.90;0.90;;;5.20;99.90;5.00;103381.00;;;;5033257;28;20185;-65
2022/01/28 09:07:19;;;;;;;0.47;0.47;;;5.30;99.90;5.00;103389.00;;;;5031561;28;20185;-64
2022/01/28 09:09:58;;;;;;;0.60;0.60;;;5.50;99.90;5.20;103391.00;;;;5032368;28;20181;-64
2022/01/28 09:12:35;;;;;;;1.07;1.07;;;5.70;99.90;5.90;103385.00;;;;5030586;28;20224;-64
2022/01/28 09:15:07;;;;;;;0.87;0.87;;;6.00;99.90;5.90;103398.00;;;;5033576;28;20178;-63
2022/01/28 09:17:34;;;;;;;4.03;2.10;;;6.30;99.90;5.00;103383.00;;;;5033370;28;20717;-63
2022/01/28 09:20:02;;;;;;;0.40;0.40;;;5.80;99.90;5.10;103382.00;;;;5034045;28;20173;-63
2022/01/28 09:22:28;;;;;;;4.50;3.57;;;5.70;99.90;5.50;103381.00;;;;5032886;28;20683;-63
2022/01/28 09:24:54;;;;;;;4.80;4.40;;;6.00;99.90;5.10;103386.00;;;;5027213;28;20180;-63
2022/01/28 09:27:22;;;;;;;15.47;7.00;;;5.80;99.90;5.70;103398.00;;;;5017096;28;20544;-63
2022/01/28 09:29:48;;;;;;;2.93;2.50;;;6.10;99.90;5.30;103373.00;;;;5026136;28;20183;-63
2022/01/28 09:32:16;;;;;;;1.30;1.17;;;6.00;99.90;5.40;103395.00;;;;5029016;28;20216;-63
2022/01/28 09:34:44;;;;;;;1.93;1.83;;;6.00;99.90;6.10;103402.00;;;;5048409;28;20275;-63
2022/01/28 09:37:13;;;;;;;1.00;0.97;;;6.40;99.90;5.60;103402.00;;;;5025530;28;20682;-63
2022/01/28 09:39:44;;;;;;;3.40;3.10;;;6.40;99.90;6.00;103409.00;;;;5020398;28;20614;-64
2022/01/28 09:42:16;;;;;;;1.70;1.60;;;6.50;99.90;5.70;103395.00;;;;5047032;28;20199;-64
2022/01/28 09:44:43;;;;;;;13.87;2.20;;;6.50;99.90;5.80;103419.00;;;;5047731;28;20605;-64
2022/01/28 09:47:11;;;;;;;3.90;3.60;;;6.60;99.90;5.90;103394.00;;;;5046130;28;20204;-63
2022/01/28 09:49:41;;;;;;;15.83;9.93;;;6.60;99.90;6.60;103413.00;;;;5048254;28;20211;-64
2022/01/28 09:52:10;;;;;;;4.90;3.90;;;7.00;99.90;6.80;103385.00;;;;5030671;28;20249;-64
2022/01/28 09:54:38;;;;;;;0.60;0.60;;;7.30;99.90;7.30;103408.00;;;;5031925;28;20676;-64
2022/01/28 09:57:06;;;;;;;0.67;0.67;;;7.60;99.90;7.10;103391.00;;;;5031721;28;20210;-64
2022/01/28 09:59:38;;;;;;;2.83;2.70;;;7.60;99.90;8.10;103401.00;;;;5032170;28;20179;-64
2022/01/28 10:02:04;;;;;;;1.23;1.13;;;8.20;99.90;6.50;103398.00;;;;5032293;28;20194;-63
2022/01/28 10:04:33;;;;;;;5.90;4.17;;;7.70;99.90;6.90;103401.00;;;;5015782;28;20537;-63
2022/01/28 10:07:08;;;;;;;0.87;0.87;;;7.60;99.90;7.00;103354.00;;;;5031699;28;20183;-64
2022/01/28 10:09:34;;;;;;;0.57;0.57;;;7.60;99.90;7.10;103398.00;;;;5028965;28;20180;-65
2022/01/28 10:12:25;;;;;;;0.30;0.30;;;7.70;99.90;8.50;103395.00;;;;5012657;28;20282;-62
2022/01/28 10:15:17;;;;;;;5.20;1.53;;;8.60;99.90;8.60;103384.00;;;;5028505;28;20237;-63
2022/01/28 10:17:55;;;;;;;0.67;0.67;;;9.10;99.90;8.60;103394.00;;;;5031329;28;20199;-64
2022/01/28 10:20:23;;;;;;;0.30;0.30;;;9.00;99.90;8.30;103381.00;;;;5011281;28;20177;-63
2022/01/28 10:33:24;;;;;;;4.07;3.80;;;9.00;99.90;8.00;103355.00;;;;5070154;28;20598;-65
2022/01/28 10:35:58;;;;;;;1.53;1.43;;;8.90;99.90;7.70;103362.00;;;;5046962;28;20198;-64
2022/01/28 10:38:34;;;;;;;2.43;2.33;;;8.50;99.90;8.10;103358.00;;;;5050131;28;20524;-64
2022/01/28 10:41:16;;;;;;;2.20;1.47;;;8.50;99.90;7.70;103356.00;;;;5047062;28;20184;-64
2022/01/28 10:43:52;;;;;;;5.97;4.93;;;8.20;99.90;8.60;103332.00;;;;5047561;28;20175;-66
2022/01/28 10:46:33;;;;;;;1.13;1.03;;;8.60;99.90;8.70;103362.00;;;;5048157;28;20198;-66
2022/01/28 10:49:08;;;;;;;1.77;1.70;;;9.00;99.90;8.60;103366.00;;;;5044940;28;20183;-66
2022/01/28 10:51:48;;;;;;;4.30;3.90;;;8.80;99.90;9.90;103369.00;;;;5047158;28;20288;-66
2022/01/28 10:54:25;;;;;;;14.37;4.70;;;9.60;99.90;10.20;103368.00;;;;5032369;28;20205;-66
2022/01/28 10:57:00;;;;;;;2.57;2.33;;;10.00;99.90;11.30;103374.00;;;;5056240;28;20188;-66
2022/01/28 10:59:47;;;;;;;1.03;1.03;;;10.70;99.90;9.80;103369.00;;;;5066524;28;20177;-66
2022/01/28 11:02:17;;;;;;;4.77;4.33;;;10.30;99.90;9.70;103372.00;;;;5064359;28;20331;-66
2022/01/28 11:04:46;;;;;;;1.80;1.70;;;10.00;99.90;8.20;103364.00;;;;5051790;28;20204;-65
2022/01/28 11:07:12;;;;;;;3.77;3.30;;;9.30;99.90;8.20;103334.00;;;;5047522;28;20197;-65
2022/01/28 11:09:44;;;;;;;1.43;1.33;;;8.90;99.90;7.70;103334.00;;;;5050251;28;20190;-65
2022/01/28 11:12:51;;;;;;;1.27;1.00;;;8.60;99.90;9.10;103378.00;;;;5046861;28;20217;-65
2022/01/28 11:16:28;;;;;;;0.30;0.30;;;9.00;99.90;10.10;103381.00;;;;5089438;28;20211;-67
2022/01/28 11:18:58;;;;;;;2.00;1.90;;;9.60;99.90;9.70;103366.00;;;;5052960;28;20309;-68
2022/01/28 11:21:56;;;;;;;9.57;2.37;;;9.80;99.90;9.20;103352.00;;;;5064820;28;20322;-68
2022/01/28 11:25:06;;;;;;;0.87;0.87;;;9.90;99.90;8.90;103357.00;;;;5063331;28;20184;-68
2022/01/28 11:27:40;;;;;;;1.17;1.17;;;9.30;99.90;8.90;103359.00;;;;5066133;28;20185;-68
2022/01/28 11:30:25;;;;;;;11.80;4.57;;;9.20;99.90;9.20;103356.00;;;;5065000;28;20195;-65
2022/01/28 11:33:11;;;;;;;1.23;1.07;;;9.20;99.90;9.40;103322.00;;;;5064163;28;20215;-68
2022/01/28 11:35:41;;;;;;;1.00;1.00;;;9.50;99.90;8.30;103309.00;;;;5046957;28;20192;-67
2022/01/28 11:38:28;;;;;;;0.60;0.60;;;9.10;99.90;10.00;103341.00;;;;5052290;28;20556;-67
2022/01/28 11:41:00;;;;;;;1.73;1.63;;;9.60;99.90;9.60;103333.00;;;;5065377;28;20193;-68
2022/01/28 11:43:30;;;;;;;1.33;1.33;;;9.90;99.90;9.90;103334.00;;;;5057424;28;20777;-68
2022/01/28 11:46:23;;;;;;;1.70;1.60;;;9.90;99.90;10.70;103340.00;;;;5051091;28;20178;-67
2022/01/28 11:48:51;;;;;;;0.30;0.30;;;10.20;99.90;11.60;103340.00;;;;5035922;28;20190;-66
2022/01/28 11:51:46;;;;;;;6.47;5.53;;;10.90;99.90;10.10;103290.00;;;;5034617;28;20233;-65
2022/01/28 11:54:19;;;;;;;0.70;0.70;;;10.40;99.90;10.20;103325.00;;;;5035147;28;20195;-67
2022/01/28 11:56:57;;;;;;;3.67;2.53;;;10.20;99.90;11.00;103333.00;;;;5068683;28;20182;-68
2022/01/28 11:59:31;;;;;;;2.80;2.33;;;10.80;99.90;8.60;103318.00;;;;5054356;28;20192;-66
2022/01/28 12:02:07;;;;;;;13.13;9.33;;;9.80;99.90;7.90;103324.00;;;;5052879;28;20225;-66
2022/01/28 12:04:39;;;;;;;2.90;2.70;;;8.70;99.90;7.00;103338.00;;;;5053833;28;20182;-66
2022/01/28 12:07:22;;;;;;;0.30;0.30;;;7.80;99.90;8.00;103340.00;;;;5037678;28;20313;-66
2022/01/28 12:09:51;;;;;;;1.03;1.03;;;7.80;99.90;7.40;103339.00;;;;5053246;28;20183;-66
2022/01/28 12:12:43;;;;;;;1.53;1.40;;;7.90;99.90;8.10;103352.00;;;;5041185;28;20250;-67
2022/01/28 12:15:13;;;;;;;0.30;0.30;;;8.10;99.90;8.90;103318.00;;;;5034483;28;20203;-67
2022/01/28 12:17:50;;;;;;;1.57;1.47;;;8.50;99.90;7.70;103348.00;;;;5034873;28;20198;-67
2022/01/28 12:20:36;;;;;;;0.40;0.40;;;8.20;99.90;7.90;103355.00;;;;5035900;28;20177;-67
2022/01/28 12:23:10;;;;;;;2.20;2.00;;;7.90;99.90;6.70;103310.00;;;;5051515;28;20184;-66
2022/01/28 12:25:46;;;;;;;0.40;0.40;;;7.50;99.90;7.90;103310.00;;;;5055278;28;20186;-66
2022/01/28 12:28:30;;;;;;;0.30;0.30;;;7.70;99.90;7.10;103307.00;;;;5039413;28;20265;-66
2022/01/28 12:31:19;;;;;;;0.60;0.60;;;7.50;99.90;7.00;103352.00;;;;5034321;28;20175;-66
2022/01/28 12:33:55;;;;;;;1.70;1.10;;;7.20;99.90;7.00;103311.00;;;;5034962;28;20310;-66
2022/01/28 12:36:30;;;;;;;0.30;0.30;;;7.40;99.90;7.70;103312.00;;;;5033116;28;20206;-66
2022/01/28 12:39:13;;;;;;;1.73;1.63;;;7.50;99.90;7.40;103301.00;;;;5033525;28;20256;-66
2022/01/28 12:42:05;;;;;;;3.50;1.50;;;7.60;99.90;7.70;103274.00;;;;5033854;28;20180;-66
2022/01/28 12:44:33;;;;;;;0.73;0.73;;;7.70;99.90;7.10;103302.00;;;;5018486;28;20199;-66